sensor_id;sensor_type;location;lat;lon;timestamp;pressure;altitude;pressure_sealevel;temperature;humidity
22657;BME280;11495;55.610;12.100;2022-07-03T00:02:01;100948.09;;;14.16;0.00
22657;BME280;11495;55.610;12.100;2022-07-03T00:04:26;100948.09;;;14.16;0.00
22657;BME280;11495;55.610;12.100;2022-07-03T00:06:53;100940.94;;;14.15;0.00
22657;BME280;11495;55.610;12.100;2022-07-03T00:09:19;100939.50;;;14.18;0.00
22657;BME280;11495;55.610;12.100;2022-07-03T00:11:45;100936.44;;;14.19;0.00
22657;BME280;11495;55.610;12.100;2022-07-03T00:14:11;100930.59;;;14.21;0.00
22657;BME280;11495;55.610;12.100;2022-07-03T00:16:36;100935.91;;;14.17;0.00
22657;BME280;11495;55.610;12.100;2022-07-03T00:19:02;100937.31;;;14.15;0.00
22657;BME280;11495;55.610;12.100;2022-07-03T00:21:31;100934.53;;;14.15;0.00
22657;BME280;11495;55.610;12.100;2022-07-03T00:24:08;100931.56;;;14.11;0.00
22657;BME280;11495;55.610;12.100;2022-07-03T00:26:37;100939.66;;;14.08;0.00
22657;BME280;11495;55.610;12.100;2022-07-03T00:29:04;100924.75;;;14.03;0.00
22657;BME280;11495;55.610;12.100;2022-07-03T00:31:32;100934.47;;;14.01;0.00
22657;BME280;11495;55.610;12.100;2022-07-03T00:33:59;100928.97;;;13.96;0.00
22657;BME280;11495;55.610;12.100;2022-07-03T00:36:34;100930.94;;;13.95;0.00
22657;BME280;11495;55.610;12.100;2022-07-03T00:39:00;100926.22;;;13.96;0.00
22657;BME280;11495;55.610;12.100;2022-07-03T00:41:34;100924.87;;;13.93;0.00
22657;BME280;11495;55.610;12.100;2022-07-03T00:44:02;100927.66;;;13.93;0.00
22657;BME280;11495;55.610;12.100;2022-07-03T00:46:28;100922.94;;;13.94;0.00
22657;BME280;11495;55.610;12.100;2022-07-03T00:48:55;100925.09;;;13.97;0.00
22657;BME280;11495;55.610;12.100;2022-07-03T00:51:26;100918.44;;;13.98;0.00
22657;BME280;11495;55.610;12.100;2022-07-03T00:53:56;100915.09;;;14.01;0.00
22657;BME280;11495;55.610;12.100;2022-07-03T00:56:29;100917.88;;;14.01;0.00
22657;BME280;11495;55.610;12.100;2022-07-03T00:58:57;100919.56;;;13.97;0.00
22657;BME280;11495;55.610;12.100;2022-07-03T01:01:30;100910.69;;;14.00;0.00
22657;BME280;11495;55.610;12.100;2022-07-03T01:06:35;100897.59;;;14.05;0.00
22657;BME280;11495;55.610;12.100;2022-07-03T01:09:05;100897.59;;;14.05;0.00
22657;BME280;11495;55.610;12.100;2022-07-03T01:11:38;100890.44;;;14.04;0.00
22657;BME280;11495;55.610;12.100;2022-07-03T01:14:26;100881.84;;;14.06;0.00
22657;BME280;11495;55.610;12.100;2022-07-03T01:16:58;100887.97;;;14.03;0.00
22657;BME280;11495;55.610;12.100;2022-07-03T01:27:09;100873.63;;;14.01;0.00
22657;BME280;11495;55.610;12.100;2022-07-03T01:29:45;100875.56;;;14.00;0.00
22657;BME280;11495;55.610;12.100;2022-07-03T01:32:14;100877.50;;;14.00;0.00
22657;BME280;11495;55.610;12.100;2022-07-03T01:34:43;100868.66;;;13.98;0.00
22657;BME280;11495;55.610;12.100;2022-07-03T01:37:14;100869.22;;;14.00;0.00
22657;BME280;11495;55.610;12.100;2022-07-03T01:39:43;100866.44;;;14.00;0.00
22657;BME280;11495;55.610;12.100;2022-07-03T01:42:10;100854.47;;;14.04;0.00
22657;BME280;11495;55.610;12.100;2022-07-03T01:44:38;100860.53;;;14.06;0.00
22657;BME280;11495;55.610;12.100;2022-07-03T01:47:05;100858.31;;;14.09;0.00
22657;BME280;11495;55.610;12.100;2022-07-03T01:49:31;100856.38;;;14.09;0.00
22657;BME280;11495;55.610;12.100;2022-07-03T01:51:58;100858.53;;;14.12;0.00
22657;BME280;11495;55.610;12.100;2022-07-03T01:54:25;100855.47;;;14.14;0.00
22657;BME280;11495;55.610;12.100;2022-07-03T01:56:53;100848.53;;;14.16;0.00
22657;BME280;11495;55.610;12.100;2022-07-03T01:59:18;100851.00;;;14.18;0.00
22657;BME280;11495;55.610;12.100;2022-07-03T02:01:52;100851.75;;;14.23;0.00
22657;BME280;11495;55.610;12.100;2022-07-03T02:04:59;100848.38;;;14.26;0.00
22657;BME280;11495;55.610;12.100;2022-07-03T02:10:29;100835.94;;;14.43;0.00
22657;BME280;11495;55.610;12.100;2022-07-03T02:13:08;100831.47;;;14.47;0.00
22657;BME280;11495;55.610;12.100;2022-07-03T02:15:42;100820.03;;;14.53;0.00
22657;BME280;11495;55.610;12.100;2022-07-03T02:18:21;100821.28;;;14.61;0.00
22657;BME280;11495;55.610;12.100;2022-07-03T02:20:56;100813.09;;;14.70;0.00
22657;BME280;11495;55.610;12.100;2022-07-03T02:23:30;100814.97;;;14.74;0.00
22657;BME280;11495;55.610;12.100;2022-07-03T02:26:00;100803.78;;;14.79;0.00
22657;BME280;11495;55.610;12.100;2022-07-03T02:29:05;100802.28;;;14.87;0.00
22657;BME280;11495;55.610;12.100;2022-07-03T02:31:37;100805.28;;;14.91;0.00
22657;BME280;11495;55.610;12.100;2022-07-03T02:34:04;100805.16;;;14.96;0.00
22657;BME280;11495;55.610;12.100;2022-07-03T02:36:34;100800.16;;;14.98;0.00
22657;BME280;11495;55.610;12.100;2022-07-03T02:38:59;100802.50;;;15.04;0.00
22657;BME280;11495;55.610;12.100;2022-07-03T02:41:46;100804.88;;;15.11;0.00
22657;BME280;11495;55.610;12.100;2022-07-03T02:44:23;100808.69;;;15.15;0.00
22657;BME280;11495;55.610;12.100;2022-07-03T02:49:58;100795.06;;;15.32;0.00
22657;BME280;11495;55.610;12.100;2022-07-03T03:01:38;100763.84;;;15.68;0.00
22657;BME280;11495;55.610;12.100;2022-07-03T03:04:08;100760.81;;;15.78;0.00
22657;BME280;11495;55.610;12.100;2022-07-03T03:06:36;100756.81;;;15.84;0.00
22657;BME280;11495;55.610;12.100;2022-07-03T03:09:07;100756.88;;;15.93;0.00
22657;BME280;11495;55.610;12.100;2022-07-03T03:14:06;100744.72;;;16.02;0.00
22657;BME280;11495;55.610;12.100;2022-07-03T03:16:33;100734.34;;;16.08;0.00
22657;BME280;11495;55.610;12.100;2022-07-03T03:18:58;100725.88;;;16.13;0.00
22657;BME280;11495;55.610;12.100;2022-07-03T03:21:26;100726.25;;;16.20;0.00
22657;BME280;11495;55.610;12.100;2022-07-03T03:23:54;100716.50;;;16.23;0.00
22657;BME280;11495;55.610;12.100;2022-07-03T03:26:26;100721.59;;;16.29;0.00
22657;BME280;11495;55.610;12.100;2022-07-03T03:28:53;100715.59;;;16.36;0.00
22657;BME280;11495;55.610;12.100;2022-07-03T03:31:20;100709.41;;;16.39;0.00
22657;BME280;11495;55.610;12.100;2022-07-03T03:33:48;100697.34;;;16.44;0.00
22657;BME280;11495;55.610;12.100;2022-07-03T03:36:16;100694.13;;;16.50;0.00
22657;BME280;11495;55.610;12.100;2022-07-03T03:38:42;100690.22;;;16.51;0.00
22657;BME280;11495;55.610;12.100;2022-07-03T03:41:08;100685.66;;;16.55;0.00
22657;BME280;11495;55.610;12.100;2022-07-03T03:43:34;100679.62;;;16.62;0.00
22657;BME280;11495;55.610;12.100;2022-07-03T03:46:00;100679.50;;;16.67;0.00
22657;BME280;11495;55.610;12.100;2022-07-03T03:48:27;100677.13;;;16.74;0.00
22657;BME280;11495;55.610;12.100;2022-07-03T03:50:53;100676.97;;;16.79;0.00
22657;BME280;11495;55.610;12.100;2022-07-03T03:53:19;100669.81;;;16.87;0.00
22657;BME280;11495;55.610;12.100;2022-07-03T03:55:59;100665.75;;;16.93;0.00
22657;BME280;11495;55.610;12.100;2022-07-03T03:58:26;100664.47;;;16.99;0.00
22657;BME280;11495;55.610;12.100;2022-07-03T04:00:52;100662.03;;;17.06;0.00
22657;BME280;11495;55.610;12.100;2022-07-03T04:03:18;100650.44;;;17.13;0.00
22657;BME280;11495;55.610;12.100;2022-07-03T04:05:44;100647.16;;;17.20;0.00
22657;BME280;11495;55.610;12.100;2022-07-03T04:08:09;100643.44;;;17.24;0.00
22657;BME280;11495;55.610;12.100;2022-07-03T04:10:35;100637.53;;;17.26;0.00
22657;BME280;11495;55.610;12.100;2022-07-03T04:13:01;100652.59;;;17.25;0.00
22657;BME280;11495;55.610;12.100;2022-07-03T04:15:26;100647.84;;;17.25;0.00
22657;BME280;11495;55.610;12.100;2022-07-03T04:17:52;100646.03;;;17.29;0.00
22657;BME280;11495;55.610;12.100;2022-07-03T04:20:17;100639.69;;;17.37;0.00
22657;BME280;11495;55.610;12.100;2022-07-03T04:22:43;100634.44;;;17.45;0.00
22657;BME280;11495;55.610;12.100;2022-07-03T04:25:08;100624.16;;;17.54;0.00
22657;BME280;11495;55.610;12.100;2022-07-03T04:27:34;100627.78;;;17.63;0.00
22657;BME280;11495;55.610;12.100;2022-07-03T04:29:59;100616.47;;;17.77;0.00
22657;BME280;11495;55.610;12.100;2022-07-03T04:32:25;100613.34;;;17.87;0.00
22657;BME280;11495;55.610;12.100;2022-07-03T04:34:50;100612.03;;;17.93;0.00
22657;BME280;11495;55.610;12.100;2022-07-03T04:37:15;100608.59;;;18.05;0.00
22657;BME280;11495;55.610;12.100;2022-07-03T04:39:41;100594.97;;;18.20;0.00
22657;BME280;11495;55.610;12.100;2022-07-03T04:42:06;100590.97;;;18.39;0.00
22657;BME280;11495;55.610;12.100;2022-07-03T04:44:32;100590.69;;;18.61;0.00
22657;BME280;11495;55.610;12.100;2022-07-03T04:46:57;100577.72;;;18.74;0.00
22657;BME280;11495;55.610;12.100;2022-07-03T04:49:22;100574.41;;;18.80;0.00
22657;BME280;11495;55.610;12.100;2022-07-03T04:51:48;100581.59;;;18.82;0.00
22657;BME280;11495;55.610;12.100;2022-07-03T04:54:13;100574.00;;;18.91;0.00
22657;BME280;11495;55.610;12.100;2022-07-03T04:56:39;100549.06;;;18.94;0.00
22657;BME280;11495;55.610;12.100;2022-07-03T04:59:04;100551.31;;;19.01;0.00
22657;BME280;11495;55.610;12.100;2022-07-03T05:01:29;100556.81;;;19.09;0.00
22657;BME280;11495;55.610;12.100;2022-07-03T05:03:55;100576.97;;;19.15;0.00
22657;BME280;11495;55.610;12.100;2022-07-03T05:06:20;100579.97;;;19.31;0.00
22657;BME280;11495;55.610;12.100;2022-07-03T05:08:45;100588.94;;;19.36;0.00
22657;BME280;11495;55.610;12.100;2022-07-03T05:11:11;100600.75;;;19.33;0.00
22657;BME280;11495;55.610;12.100;2022-07-03T05:13:36;100605.53;;;19.33;0.00
22657;BME280;11495;55.610;12.100;2022-07-03T05:16:02;100639.75;;;19.21;0.00
22657;BME280;11495;55.610;12.100;2022-07-03T05:18:27;100650.19;;;19.24;0.00
22657;BME280;11495;55.610;12.100;2022-07-03T05:20:53;100668.28;;;19.18;0.00
22657;BME280;11495;55.610;12.100;2022-07-03T05:23:18;100692.56;;;19.18;0.00
22657;BME280;11495;55.610;12.100;2022-07-03T05:25:43;100698.00;;;19.14;0.00
22657;BME280;11495;55.610;12.100;2022-07-03T05:28:09;100710.59;;;19.20;0.00
22657;BME280;11495;55.610;12.100;2022-07-03T05:30:35;100714.34;;;19.24;0.00
22657;BME280;11495;55.610;12.100;2022-07-03T05:33:00;100732.69;;;19.25;0.00
22657;BME280;11495;55.610;12.100;2022-07-03T05:35:26;100742.53;;;19.31;0.00
22657;BME280;11495;55.610;12.100;2022-07-03T05:37:52;100768.47;;;19.23;0.00
22657;BME280;11495;55.610;12.100;2022-07-03T05:40:17;100778.19;;;19.17;0.00
22657;BME280;11495;55.610;12.100;2022-07-03T05:42:43;100789.50;;;19.21;0.00
22657;BME280;11495;55.610;12.100;2022-07-03T05:45:09;100796.84;;;19.25;0.00
22657;BME280;11495;55.610;12.100;2022-07-03T05:47:38;100811.44;;;19.31;0.00
22657;BME280;11495;55.610;12.100;2022-07-03T05:50:04;100813.88;;;19.32;0.00
22657;BME280;11495;55.610;12.100;2022-07-03T05:52:29;100826.31;;;19.35;0.00
22657;BME280;11495;55.610;12.100;2022-07-03T05:54:55;100834.38;;;19.36;0.00
22657;BME280;11495;55.610;12.100;2022-07-03T05:57:20;100845.34;;;19.42;0.00
22657;BME280;11495;55.610;12.100;2022-07-03T05:59:46;100848.91;;;19.51;0.00
22657;BME280;11495;55.610;12.100;2022-07-03T06:02:12;100871.84;;;19.65;0.00
22657;BME280;11495;55.610;12.100;2022-07-03T06:04:37;100884.13;;;19.73;0.00
22657;BME280;11495;55.610;12.100;2022-07-03T06:07:03;100904.00;;;19.71;0.00
22657;BME280;11495;55.610;12.100;2022-07-03T06:09:29;100924.03;;;19.73;0.00
22657;BME280;11495;55.610;12.100;2022-07-03T06:11:54;100933.06;;;19.70;0.00
22657;BME280;11495;55.610;12.100;2022-07-03T06:14:20;100945.91;;;19.62;0.00
22657;BME280;11495;55.610;12.100;2022-07-03T06:16:46;100946.03;;;19.66;0.00
22657;BME280;11495;55.610;12.100;2022-07-03T06:19:11;100954.09;;;19.59;0.00
22657;BME280;11495;55.610;12.100;2022-07-03T06:21:37;100958.03;;;19.67;0.00
22657;BME280;11495;55.610;12.100;2022-07-03T06:24:02;100950.09;;;19.77;0.00
22657;BME280;11495;55.610;12.100;2022-07-03T06:26:28;100961.91;;;19.83;0.00
22657;BME280;11495;55.610;12.100;2022-07-03T06:28:54;100966.63;;;19.91;0.00
22657;BME280;11495;55.610;12.100;2022-07-03T06:31:20;100965.72;;;20.08;0.00
22657;BME280;11495;55.610;12.100;2022-07-03T06:33:45;100978.25;;;20.31;0.00
22657;BME280;11495;55.610;12.100;2022-07-03T06:36:11;100981.97;;;20.53;0.00
22657;BME280;11495;55.610;12.100;2022-07-03T06:38:36;100982.66;;;20.70;0.00
22657;BME280;11495;55.610;12.100;2022-07-03T06:41:16;100995.34;;;20.89;0.00
22657;BME280;11495;55.610;12.100;2022-07-03T06:43:41;100990.72;;;21.47;0.00
22657;BME280;11495;55.610;12.100;2022-07-03T06:46:06;100982.56;;;22.24;0.00
22657;BME280;11495;55.610;12.100;2022-07-03T06:48:32;100988.00;;;22.93;0.00
22657;BME280;11495;55.610;12.100;2022-07-03T06:50:58;100989.28;;;23.52;0.00
22657;BME280;11495;55.610;12.100;2022-07-03T06:53:23;100995.47;;;23.73;0.00
22657;BME280;11495;55.610;12.100;2022-07-03T06:55:49;100984.53;;;24.16;0.00
22657;BME280;11495;55.610;12.100;2022-07-03T06:58:14;100985.25;;;24.28;0.00
22657;BME280;11495;55.610;12.100;2022-07-03T07:00:40;101008.47;;;24.25;0.00
22657;BME280;11495;55.610;12.100;2022-07-03T07:03:05;101021.06;;;24.31;0.00
22657;BME280;11495;55.610;12.100;2022-07-03T07:05:31;101039.19;;;23.87;0.00
22657;BME280;11495;55.610;12.100;2022-07-03T07:07:56;100978.38;;;24.10;0.00
22657;BME280;11495;55.610;12.100;2022-07-03T07:10:22;101066.56;;;24.05;0.00
22657;BME280;11495;55.610;12.100;2022-07-03T07:12:47;101145.63;;;24.04;0.00
22657;BME280;11495;55.610;12.100;2022-07-03T07:15:14;101120.41;;;24.51;0.00
22657;BME280;11495;55.610;12.100;2022-07-03T07:17:39;100873.88;;;24.98;0.00
22657;BME280;11495;55.610;12.100;2022-07-03T07:20:05;100698.37;;;25.32;0.00
22657;BME280;11495;55.610;12.100;2022-07-03T07:22:31;100671.81;;;25.60;0.00
22657;BME280;11495;55.610;12.100;2022-07-03T07:24:56;100751.75;;;25.74;0.00
22657;BME280;11495;55.610;12.100;2022-07-03T07:27:21;100826.22;;;25.73;0.00
22657;BME280;11495;55.610;12.100;2022-07-03T07:29:47;100902.28;;;25.73;0.00
22657;BME280;11495;55.610;12.100;2022-07-03T07:32:12;100941.84;;;26.30;0.00
22657;BME280;11495;55.610;12.100;2022-07-03T07:34:38;101028.88;;;26.54;0.00
22657;BME280;11495;55.610;12.100;2022-07-03T07:37:03;101041.88;;;26.36;0.00
22657;BME280;11495;55.610;12.100;2022-07-03T07:39:29;101073.31;;;25.92;0.00
22657;BME280;11495;55.610;12.100;2022-07-03T07:41:54;101053.47;;;25.66;0.00
22657;BME280;11495;55.610;12.100;2022-07-03T07:44:19;101043.19;;;25.73;0.00
22657;BME280;11495;55.610;12.100;2022-07-03T07:46:45;101071.22;;;25.89;0.00
22657;BME280;11495;55.610;12.100;2022-07-03T07:49:10;101071.78;;;26.18;0.00
22657;BME280;11495;55.610;12.100;2022-07-03T07:51:36;101086.12;;;26.32;0.00
22657;BME280;11495;55.610;12.100;2022-07-03T07:54:01;101091.31;;;26.76;0.00
22657;BME280;11495;55.610;12.100;2022-07-03T07:56:26;101173.91;;;27.22;0.00
22657;BME280;11495;55.610;12.100;2022-07-03T07:58:52;101184.72;;;27.69;0.00
22657;BME280;11495;55.610;12.100;2022-07-03T08:01:18;101183.22;;;28.13;0.00
22657;BME280;11495;55.610;12.100;2022-07-03T08:04:03;101150.78;;;28.03;0.00
22657;BME280;11495;55.610;12.100;2022-07-03T08:06:47;101169.78;;;28.03;0.00
22657;BME280;11495;55.610;12.100;2022-07-03T08:09:13;101188.22;;;27.89;0.00
22657;BME280;11495;55.610;12.100;2022-07-03T08:11:38;101187.81;;;28.24;0.00
22657;BME280;11495;55.610;12.100;2022-07-03T08:14:04;101183.59;;;28.45;0.00
22657;BME280;11495;55.610;12.100;2022-07-03T08:16:32;101184.19;;;29.09;0.00
22657;BME280;11495;55.610;12.100;2022-07-03T08:18:58;101178.88;;;29.04;0.00
22657;BME280;11495;55.610;12.100;2022-07-03T08:21:23;101176.44;;;28.99;0.00
22657;BME280;11495;55.610;12.100;2022-07-03T08:23:49;101181.41;;;29.16;0.00
22657;BME280;11495;55.610;12.100;2022-07-03T08:26:14;101189.31;;;28.93;0.00
22657;BME280;11495;55.610;12.100;2022-07-03T08:28:40;101190.53;;;28.51;0.00
22657;BME280;11495;55.610;12.100;2022-07-03T08:31:05;101193.66;;;28.39;0.00
22657;BME280;11495;55.610;12.100;2022-07-03T08:33:30;101175.69;;;29.05;0.00
22657;BME280;11495;55.610;12.100;2022-07-03T08:35:56;101182.72;;;29.29;0.00
22657;BME280;11495;55.610;12.100;2022-07-03T08:38:28;101189.97;;;28.79;0.00
22657;BME280;11495;55.610;12.100;2022-07-03T08:40:57;101187.91;;;29.20;0.00
22657;BME280;11495;55.610;12.100;2022-07-03T08:43:24;101199.59;;;28.67;0.00
22657;BME280;11495;55.610;12.100;2022-07-03T08:45:50;101197.28;;;28.80;0.00
22657;BME280;11495;55.610;12.100;2022-07-03T08:48:16;101196.56;;;28.12;0.00
22657;BME280;11495;55.610;12.100;2022-07-03T08:50:44;101195.03;;;27.88;0.00
22657;BME280;11495;55.610;12.100;2022-07-03T08:53:11;101194.41;;;28.02;0.00
22657;BME280;11495;55.610;12.100;2022-07-03T08:55:36;101181.97;;;28.10;0.00
22657;BME280;11495;55.610;12.100;2022-07-03T08:58:04;101182.84;;;28.48;0.00
22657;BME280;11495;55.610;12.100;2022-07-03T09:00:31;101189.16;;;28.01;0.00
22657;BME280;11495;55.610;12.100;2022-07-03T09:02:59;101199.72;;;27.47;0.00
22657;BME280;11495;55.610;12.100;2022-07-03T09:05:24;101186.09;;;27.26;0.00
22657;BME280;11495;55.610;12.100;2022-07-03T09:07:51;101191.91;;;26.87;0.00
22657;BME280;11495;55.610;12.100;2022-07-03T09:10:18;101183.38;;;26.84;0.00
22657;BME280;11495;55.610;12.100;2022-07-03T09:12:46;101181.94;;;26.71;0.00
22657;BME280;11495;55.610;12.100;2022-07-03T09:15:12;101195.53;;;26.42;0.00
22657;BME280;11495;55.610;12.100;2022-07-03T09:17:38;101198.44;;;26.69;0.00
22657;BME280;11495;55.610;12.100;2022-07-03T09:20:06;101208.16;;;27.17;0.00
22657;BME280;11495;55.610;12.100;2022-07-03T09:22:34;101212.59;;;27.18;0.00
22657;BME280;11495;55.610;12.100;2022-07-03T09:25:12;101210.31;;;27.27;0.00
22657;BME280;11495;55.610;12.100;2022-07-03T09:27:50;101221.16;;;26.99;0.00
22657;BME280;11495;55.610;12.100;2022-07-03T09:30:15;101211.38;;;27.15;0.00
22657;BME280;11495;55.610;12.100;2022-07-03T09:37:55;101205.72;;;26.93;0.00
22657;BME280;11495;55.610;12.100;2022-07-03T09:40:22;101207.06;;;27.02;0.00
22657;BME280;11495;55.610;12.100;2022-07-03T09:43:06;101196.56;;;27.52;0.00
22657;BME280;11495;55.610;12.100;2022-07-03T09:51:21;101208.00;;;27.63;0.00
22657;BME280;11495;55.610;12.100;2022-07-03T09:53:59;101196.75;;;27.96;0.00
22657;BME280;11495;55.610;12.100;2022-07-03T09:56:34;101203.94;;;27.60;0.00
22657;BME280;11495;55.610;12.100;2022-07-03T10:01:32;101193.09;;;27.36;0.00
22657;BME280;11495;55.610;12.100;2022-07-03T10:04:30;101199.63;;;27.66;0.00
22657;BME280;11495;55.610;12.100;2022-07-03T10:06:57;101198.03;;;27.69;0.00
22657;BME280;11495;55.610;12.100;2022-07-03T10:09:30;101188.84;;;27.76;0.00
22657;BME280;11495;55.610;12.100;2022-07-03T10:11:57;101190.84;;;27.75;0.00
22657;BME280;11495;55.610;12.100;2022-07-03T10:14:26;101202.19;;;26.99;0.00
22657;BME280;11495;55.610;12.100;2022-07-03T10:16:52;101203.47;;;26.37;0.00
22657;BME280;11495;55.610;12.100;2022-07-03T10:19:22;101205.22;;;27.10;0.00
22657;BME280;11495;55.610;12.100;2022-07-03T10:21:54;101189.06;;;27.93;0.00
22657;BME280;11495;55.610;12.100;2022-07-03T10:24:26;101194.50;;;28.43;0.00
22657;BME280;11495;55.610;12.100;2022-07-03T10:26:53;101192.94;;;28.49;0.00
22657;BME280;11495;55.610;12.100;2022-07-03T10:29:23;101192.78;;;28.35;0.00
22657;BME280;11495;55.610;12.100;2022-07-03T10:31:49;101203.16;;;27.90;0.00
22657;BME280;11495;55.610;12.100;2022-07-03T10:34:19;101203.37;;;27.74;0.00
22657;BME280;11495;55.610;12.100;2022-07-03T10:36:47;101215.94;;;27.01;0.00
22657;BME280;11495;55.610;12.100;2022-07-03T10:42:08;101211.28;;;26.24;0.00
22657;BME280;11495;55.610;12.100;2022-07-03T10:45:07;101212.34;;;25.61;0.00
22657;BME280;11495;55.610;12.100;2022-07-03T10:47:37;101202.69;;;25.43;0.00
22657;BME280;11495;55.610;12.100;2022-07-03T10:50:16;101199.75;;;25.04;0.00
22657;BME280;11495;55.610;12.100;2022-07-03T10:52:43;101214.16;;;24.71;0.00
22657;BME280;11495;55.610;12.100;2022-07-03T10:55:11;101210.59;;;24.43;0.00
22657;BME280;11495;55.610;12.100;2022-07-03T10:57:37;101191.16;;;24.37;0.00
22657;BME280;11495;55.610;12.100;2022-07-03T11:00:13;101162.81;;;24.30;0.00
22657;BME280;11495;55.610;12.100;2022-07-03T11:02:50;101133.41;;;24.12;0.00
22657;BME280;11495;55.610;12.100;2022-07-03T11:13:16;100972.94;;;23.70;0.00
22657;BME280;11495;55.610;12.100;2022-07-03T11:15:43;100922.63;;;23.80;0.00
22657;BME280;11495;55.610;12.100;2022-07-03T11:18:25;100885.94;;;23.89;0.00
22657;BME280;11495;55.610;12.100;2022-07-03T11:38:51;100944.72;;;24.64;0.00
22657;BME280;11495;55.610;12.100;2022-07-03T11:41:18;100936.59;;;24.59;0.00
22657;BME280;11495;55.610;12.100;2022-07-03T11:43:48;100944.53;;;24.38;0.00
22657;BME280;11495;55.610;12.100;2022-07-03T11:46:21;100939.03;;;23.94;0.00
22657;BME280;11495;55.610;12.100;2022-07-03T11:48:47;100903.91;;;23.69;0.00
22657;BME280;11495;55.610;12.100;2022-07-03T11:51:14;100884.37;;;23.44;0.00
22657;BME280;11495;55.610;12.100;2022-07-03T11:53:40;100817.56;;;23.18;0.00
22657;BME280;11495;55.610;12.100;2022-07-03T11:56:09;100765.41;;;23.02;0.00
22657;BME280;11495;55.610;12.100;2022-07-03T11:58:53;100711.09;;;22.94;0.00
22657;BME280;11495;55.610;12.100;2022-07-03T12:03:58;100688.72;;;22.82;0.00
22657;BME280;11495;55.610;12.100;2022-07-03T12:06:33;100795.25;;;22.94;0.00
22657;BME280;11495;55.610;12.100;2022-07-03T12:08:59;100827.31;;;23.09;0.00
22657;BME280;11495;55.610;12.100;2022-07-03T12:11:24;100817.75;;;23.25;0.00
22657;BME280;11495;55.610;12.100;2022-07-03T12:13:49;100817.38;;;23.43;0.00
22657;BME280;11495;55.610;12.100;2022-07-03T12:16:18;100829.41;;;23.43;0.00
22657;BME280;11495;55.610;12.100;2022-07-03T12:18:53;100840.28;;;23.45;0.00
22657;BME280;11495;55.610;12.100;2022-07-03T12:21:21;100839.91;;;23.31;0.00
22657;BME280;11495;55.610;12.100;2022-07-03T12:23:53;100842.16;;;23.41;0.00
22657;BME280;11495;55.610;12.100;2022-07-03T12:26:35;100833.50;;;23.62;0.00
22657;BME280;11495;55.610;12.100;2022-07-03T12:29:03;100832.44;;;24.01;0.00
22657;BME280;11495;55.610;12.100;2022-07-03T12:31:32;100836.16;;;24.60;0.00
22657;BME280;11495;55.610;12.100;2022-07-03T12:34:00;100839.41;;;25.24;0.00
22657;BME280;11495;55.610;12.100;2022-07-03T12:36:26;100838.22;;;25.97;0.00
22657;BME280;11495;55.610;12.100;2022-07-03T12:38:52;100795.28;;;26.37;0.00
22657;BME280;11495;55.610;12.100;2022-07-03T12:41:19;100770.78;;;26.78;0.00
22657;BME280;11495;55.610;12.100;2022-07-03T12:43:47;100875.09;;;27.38;0.00
22657;BME280;11495;55.610;12.100;2022-07-03T12:46:25;100948.13;;;27.74;0.00
22657;BME280;11495;55.610;12.100;2022-07-03T12:48:52;101026.75;;;28.05;0.00
22657;BME280;11495;55.610;12.100;2022-07-03T12:54:09;101143.81;;;27.93;0.00
22657;BME280;11495;55.610;12.100;2022-07-03T12:56:35;101156.31;;;27.62;0.00
22657;BME280;11495;55.610;12.100;2022-07-03T12:59:01;101143.75;;;27.56;0.00
22657;BME280;11495;55.610;12.100;2022-07-03T13:01:42;101126.97;;;27.70;0.00
22657;BME280;11495;55.610;12.100;2022-07-03T13:04:08;101128.84;;;27.59;0.00
22657;BME280;11495;55.610;12.100;2022-07-03T13:06:34;101122.66;;;27.80;0.00
22657;BME280;11495;55.610;12.100;2022-07-03T13:09:05;101122.69;;;27.84;0.00
22657;BME280;11495;55.610;12.100;2022-07-03T13:11:41;101118.22;;;28.57;0.00
22657;BME280;11495;55.610;12.100;2022-07-03T13:14:13;101113.16;;;29.39;0.00
22657;BME280;11495;55.610;12.100;2022-07-03T13:16:44;101113.75;;;29.84;0.00
22657;BME280;11495;55.610;12.100;2022-07-03T13:19:15;101105.25;;;29.84;0.00
22657;BME280;11495;55.610;12.100;2022-07-03T13:21:40;101112.56;;;29.88;0.00
22657;BME280;11495;55.610;12.100;2022-07-03T13:24:08;101108.88;;;29.84;0.00
22657;BME280;11495;55.610;12.100;2022-07-03T13:26:34;101117.38;;;29.01;0.00
22657;BME280;11495;55.610;12.100;2022-07-03T13:28:59;101116.16;;;29.02;0.00
22657;BME280;11495;55.610;12.100;2022-07-03T13:31:25;101118.47;;;28.89;0.00
22657;BME280;11495;55.610;12.100;2022-07-03T13:33:50;101114.59;;;28.60;0.00
22657;BME280;11495;55.610;12.100;2022-07-03T13:36:16;101104.69;;;28.84;0.00
22657;BME280;11495;55.610;12.100;2022-07-03T13:38:43;101097.19;;;29.09;0.00
22657;BME280;11495;55.610;12.100;2022-07-03T13:41:08;101097.31;;;29.34;0.00
22657;BME280;11495;55.610;12.100;2022-07-03T13:43:34;101098.47;;;29.23;0.00
22657;BME280;11495;55.610;12.100;2022-07-03T13:45:59;101107.91;;;28.86;0.00
22657;BME280;11495;55.610;12.100;2022-07-03T13:48:25;101091.66;;;29.34;0.00
22657;BME280;11495;55.610;12.100;2022-07-03T13:50:50;101096.09;;;29.32;0.00
22657;BME280;11495;55.610;12.100;2022-07-03T13:53:15;101082.81;;;29.47;0.00
22657;BME280;11495;55.610;12.100;2022-07-03T13:55:41;101085.19;;;29.37;0.00
22657;BME280;11495;55.610;12.100;2022-07-03T13:58:07;101088.81;;;28.72;0.00
22657;BME280;11495;55.610;12.100;2022-07-03T14:00:33;101086.16;;;28.05;0.00
22657;BME280;11495;55.610;12.100;2022-07-03T14:02:59;101076.88;;;27.67;0.00
22657;BME280;11495;55.610;12.100;2022-07-03T14:05:24;101072.94;;;27.76;0.00
22657;BME280;11495;55.610;12.100;2022-07-03T14:07:50;101075.13;;;27.26;0.00
22657;BME280;11495;55.610;12.100;2022-07-03T14:10:15;101066.66;;;26.73;0.00
22657;BME280;11495;55.610;12.100;2022-07-03T14:12:41;101034.22;;;26.37;0.00